| time (UTC) | temp F | wind direction | speed MPH | gust MPH | rain 1hr in | rain 24hr in | rain mn in | humidity % | barometer mb |
| 20260906230005 | 96 | 191 | 5.0 | 10.0 | 0.00 | 0.00 | 0.00 | 28 | 1008.7 |
| 20260906220004 | 98 | 269 | 5.0 | 105.0 | 0.00 | 0.00 | 0.00 | 26 | 1009.0 |
| 20260906213005 | 97 | 329 | 4.0 | 112.0 | 0.00 | 0.00 | 0.00 | 26 | 1009.6 |
| 20260906210004 | 97 | 216 | 6.0 | 112.0 | 0.00 | 0.00 | 0.00 | 26 | 1009.8 |
| 20260906203005 | 97 | 336 | 4.0 | 8.0 | 0.00 | 0.00 | 0.00 | 26 | 1010.3 |
| 20260906200005 | 95 | 244 | 2.0 | 8.0 | 0.00 | 0.00 | 0.00 | 27 | 1010.6 |
| 20260906193004 | 94 | 269 | 3.0 | 105.0 | 0.00 | 0.00 | 0.00 | 28 | 1011.0 |
| 20260906190005 | 93 | 273 | 3.0 | 8.0 | 0.00 | 0.00 | 0.00 | 29 | 1011.3 |
| 20260906173004 | 90 | 245 | 3.0 | 105.0 | 0.00 | 0.00 | 0.00 | 34 | 1012.3 |
| 20260906170005 | 87 | 350 | 1.0 | 6.0 | 0.00 | 0.00 | 0.00 | 37 | 1012.5 |
| 20260906160004 | 81 | 243 | 0.0 | 77.0 | 0.00 | 0.00 | 0.00 | 43 | 1012.6 |
| 20260906153006 | 79 | 282 | 0.0 | 5.0 | 0.00 | 0.00 | 0.00 | 44 | 1012.5 |
| 20260906150005 | 78 | 255 | 2.0 | 5.0 | 0.00 | 0.00 | 0.00 | 44 | 1012.5 |
| 20260906143004 | 80 | 189 | 0.0 | 92.0 | 0.00 | 0.00 | 0.00 | 44 | 1012.2 |
| 20260906140004 | 74 | 199 | 0.0 | 79.0 | 0.00 | 0.00 | 0.00 | 50 | 1012.2 |
| 20260906130005 | 67 | 112 | 0.0 | 0.0 | 0.00 | 0.00 | 0.00 | 58 | 1011.8 |
| 20260906123004 | 68 | 221 | 0.0 | 46.0 | 0.00 | 0.00 | 0.00 | 56 | 1011.6 |
| 20260906120004 | 69 | 112 | 0.0 | 0.0 | 0.00 | 0.00 | 0.00 | 56 | 1011.5 |
| 20260906113005 | 69 | 135 | 0.0 | 0.0 | 0.00 | 0.00 | 0.00 | 59 | 1011.6 |
| 20260906103004 | 72 | 112 | 0.0 | 0.0 | 0.00 | 0.00 | 0.00 | 53 | 1011.5 |
| 20260906100004 | 70 | 112 | 0.0 | 81.0 | 0.00 | 0.00 | 0.00 | 57 | 1011.6 |
| 20260906093004 | 71 | 158 | 0.0 | 0.0 | 0.00 | 0.00 | 0.00 | 58 | 1011.1 |
| 20260906090004 | 72 | 112 | 0.0 | 0.0 | 0.00 | 0.00 | 0.00 | 54 | 1011.1 |
| 20260906083004 | 71 | 112 | 0.0 | 0.0 | 0.00 | 0.00 | 0.00 | 56 | 1011.3 |
| 20260906073004 | 71 | 112 | 0.0 | 82.0 | 0.00 | 0.00 | 0.00 | 54 | 1011.6 |
| 20260906063004 | 73 | 114 | 1.0 | 85.0 | 0.00 | 0.00 | 0.00 | 54 | 1011.8 |
| 20260906060004 | 74 | 146 | 0.0 | 77.0 | 0.00 | 0.00 | 0.00 | 50 | 1011.5 |
| 20260906053004 | 76 | 187 | 2.0 | 3.0 | 0.00 | 0.00 | 0.00 | 45 | 1011.5 |
| 20260906050004 | 79 | 324 | 0.0 | 91.0 | 0.00 | 0.00 | 0.00 | 40 | 1011.2 |
| 20260906043004 | 79 | 20 | 0.0 | 17.0 | 0.00 | 0.00 | 0.00 | 41 | 1011.1 |
| 20260906033004 | 80 | 35 | 0.0 | 0.0 | 0.00 | 0.00 | 0.00 | 42 | 1011.1 |
| 20260906030005 | 80 | 22 | 0.0 | 0.0 | 0.00 | 0.00 | 0.00 | 43 | 1010.7 |
| 20260906023004 | 79 | 69 | 0.0 | 0.0 | 0.00 | 0.00 | 0.00 | 44 | 1010.3 |